sensor_id;sensor_type;location;lat;lon;timestamp;P1;durP1;ratioP1;P2;durP2;ratioP2
39448;SDS011;25151;45.566;9.382;2023-05-10T00:01:52;5.25;;;2.30;;
39448;SDS011;25151;45.566;9.382;2023-05-10T00:04:52;2.38;;;1.95;;
39448;SDS011;25151;45.566;9.382;2023-05-10T00:07:53;3.30;;;1.70;;
39448;SDS011;25151;45.566;9.382;2023-05-10T00:10:53;4.15;;;2.10;;
39448;SDS011;25151;45.566;9.382;2023-05-10T00:13:54;3.72;;;2.53;;
39448;SDS011;25151;45.566;9.382;2023-05-10T00:16:55;4.28;;;2.78;;
39448;SDS011;25151;45.566;9.382;2023-05-10T00:19:55;2.88;;;2.05;;
39448;SDS011;25151;45.566;9.382;2023-05-10T00:22:56;2.55;;;2.00;;
39448;SDS011;25151;45.566;9.382;2023-05-10T00:25:56;4.05;;;2.38;;
39448;SDS011;25151;45.566;9.382;2023-05-10T00:28:57;3.22;;;2.03;;
39448;SDS011;25151;45.566;9.382;2023-05-10T00:31:58;1.98;;;1.50;;
39448;SDS011;25151;45.566;9.382;2023-05-10T00:34:59;2.50;;;1.77;;
39448;SDS011;25151;45.566;9.382;2023-05-10T00:37:59;4.10;;;2.30;;
39448;SDS011;25151;45.566;9.382;2023-05-10T00:41:00;3.28;;;2.88;;
39448;SDS011;25151;45.566;9.382;2023-05-10T00:44:00;2.72;;;1.67;;
39448;SDS011;25151;45.566;9.382;2023-05-10T00:47:02;2.67;;;2.08;;
39448;SDS011;25151;45.566;9.382;2023-05-10T00:50:03;4.70;;;1.98;;
39448;SDS011;25151;45.566;9.382;2023-05-10T00:53:05;3.08;;;1.95;;
39448;SDS011;25151;45.566;9.382;2023-05-10T00:56:06;2.15;;;1.70;;
39448;SDS011;25151;45.566;9.382;2023-05-10T00:59:07;5.00;;;2.30;;
39448;SDS011;25151;45.566;9.382;2023-05-10T01:02:08;3.17;;;2.10;;
39448;SDS011;25151;45.566;9.382;2023-05-10T01:05:09;4.10;;;2.03;;
39448;SDS011;25151;45.566;9.382;2023-05-10T01:08:10;3.47;;;2.35;;
39448;SDS011;25151;45.566;9.382;2023-05-10T01:11:11;3.50;;;1.83;;
39448;SDS011;25151;45.566;9.382;2023-05-10T01:14:11;3.47;;;1.85;;
39448;SDS011;25151;45.566;9.382;2023-05-10T01:17:12;3.47;;;2.15;;
39448;SDS011;25151;45.566;9.382;2023-05-10T01:20:14;2.63;;;2.03;;
39448;SDS011;25151;45.566;9.382;2023-05-10T01:23:35;2.92;;;2.00;;
39448;SDS011;25151;45.566;9.382;2023-05-10T01:26:57;4.28;;;1.77;;
39448;SDS011;25151;45.566;9.382;2023-05-10T01:33:38;2.78;;;1.80;;
39448;SDS011;25151;45.566;9.382;2023-05-10T01:40:03;2.30;;;1.90;;
39448;SDS011;25151;45.566;9.382;2023-05-10T01:44:14;2.20;;;1.80;;
39448;SDS011;25151;45.566;9.382;2023-05-10T01:46:57;3.45;;;2.08;;
39448;SDS011;25151;45.566;9.382;2023-05-10T01:50:06;3.25;;;1.60;;
39448;SDS011;25151;45.566;9.382;2023-05-10T01:53:17;2.60;;;1.75;;
39448;SDS011;25151;45.566;9.382;2023-05-10T01:56:20;4.10;;;1.92;;
39448;SDS011;25151;45.566;9.382;2023-05-10T01:59:24;3.58;;;2.10;;
39448;SDS011;25151;45.566;9.382;2023-05-10T02:02:33;3.33;;;1.88;;
39448;SDS011;25151;45.566;9.382;2023-05-10T02:05:38;3.58;;;1.98;;
39448;SDS011;25151;45.566;9.382;2023-05-10T02:08:41;2.50;;;2.00;;
39448;SDS011;25151;45.566;9.382;2023-05-10T02:11:43;2.40;;;1.90;;
39448;SDS011;25151;45.566;9.382;2023-05-10T02:14:44;2.72;;;1.80;;
39448;SDS011;25151;45.566;9.382;2023-05-10T02:17:46;3.65;;;1.95;;
39448;SDS011;25151;45.566;9.382;2023-05-10T02:20:47;3.13;;;1.85;;
39448;SDS011;25151;45.566;9.382;2023-05-10T02:23:48;2.88;;;1.92;;
39448;SDS011;25151;45.566;9.382;2023-05-10T02:26:53;2.88;;;2.05;;
39448;SDS011;25151;45.566;9.382;2023-05-10T02:29:58;4.75;;;2.45;;
39448;SDS011;25151;45.566;9.382;2023-05-10T02:32:59;2.10;;;1.90;;
39448;SDS011;25151;45.566;9.382;2023-05-10T02:36:00;3.15;;;2.13;;
39448;SDS011;25151;45.566;9.382;2023-05-10T02:39:02;2.53;;;2.33;;
39448;SDS011;25151;45.566;9.382;2023-05-10T02:42:04;2.15;;;1.73;;
39448;SDS011;25151;45.566;9.382;2023-05-10T02:45:07;3.30;;;2.08;;
39448;SDS011;25151;45.566;9.382;2023-05-10T02:48:12;3.15;;;1.90;;
39448;SDS011;25151;45.566;9.382;2023-05-10T02:51:13;2.88;;;2.05;;
39448;SDS011;25151;45.566;9.382;2023-05-10T02:54:18;2.20;;;1.83;;
39448;SDS011;25151;45.566;9.382;2023-05-10T02:57:28;2.40;;;1.92;;
39448;SDS011;25151;45.566;9.382;2023-05-10T03:00:31;2.33;;;1.92;;
39448;SDS011;25151;45.566;9.382;2023-05-10T03:03:32;2.85;;;2.10;;
39448;SDS011;25151;45.566;9.382;2023-05-10T03:06:34;2.75;;;1.88;;
39448;SDS011;25151;45.566;9.382;2023-05-10T03:09:35;2.17;;;1.80;;
39448;SDS011;25151;45.566;9.382;2023-05-10T03:16:19;2.45;;;2.13;;
39448;SDS011;25151;45.566;9.382;2023-05-10T03:19:32;2.90;;;2.33;;
39448;SDS011;25151;45.566;9.382;2023-05-10T03:22:44;2.63;;;1.90;;
39448;SDS011;25151;45.566;9.382;2023-05-10T03:25:48;3.85;;;2.22;;
39448;SDS011;25151;45.566;9.382;2023-05-10T03:28:50;2.80;;;1.60;;
39448;SDS011;25151;45.566;9.382;2023-05-10T03:31:52;6.00;;;1.92;;
39448;SDS011;25151;45.566;9.382;2023-05-10T03:34:53;2.15;;;1.77;;
39448;SDS011;25151;45.566;9.382;2023-05-10T03:37:54;2.15;;;1.83;;
39448;SDS011;25151;45.566;9.382;2023-05-10T03:40:54;2.60;;;1.80;;
39448;SDS011;25151;45.566;9.382;2023-05-10T03:43:55;4.22;;;2.08;;
39448;SDS011;25151;45.566;9.382;2023-05-10T03:46:56;2.30;;;1.95;;
39448;SDS011;25151;45.566;9.382;2023-05-10T03:49:57;3.13;;;2.00;;
39448;SDS011;25151;45.566;9.382;2023-05-10T03:52:57;2.42;;;1.70;;
39448;SDS011;25151;45.566;9.382;2023-05-10T03:55:58;3.33;;;1.70;;
39448;SDS011;25151;45.566;9.382;2023-05-10T03:58:58;3.63;;;1.85;;
39448;SDS011;25151;45.566;9.382;2023-05-10T04:01:59;3.55;;;1.67;;
39448;SDS011;25151;45.566;9.382;2023-05-10T04:04:59;3.58;;;1.80;;
39448;SDS011;25151;45.566;9.382;2023-05-10T04:08:00;2.35;;;1.65;;
39448;SDS011;25151;45.566;9.382;2023-05-10T04:14:08;3.35;;;2.05;;
39448;SDS011;25151;45.566;9.382;2023-05-10T04:17:09;2.80;;;2.03;;
39448;SDS011;25151;45.566;9.382;2023-05-10T04:20:10;1.50;;;1.40;;
39448;SDS011;25151;45.566;9.382;2023-05-10T04:23:11;1.92;;;1.65;;
39448;SDS011;25151;45.566;9.382;2023-05-10T04:26:14;2.30;;;1.70;;
39448;SDS011;25151;45.566;9.382;2023-05-10T04:29:14;3.97;;;1.80;;
39448;SDS011;25151;45.566;9.382;2023-05-10T04:32:15;2.63;;;1.88;;
39448;SDS011;25151;45.566;9.382;2023-05-10T04:35:17;2.95;;;1.77;;
39448;SDS011;25151;45.566;9.382;2023-05-10T04:38:17;2.33;;;1.50;;
39448;SDS011;25151;45.566;9.382;2023-05-10T04:41:18;2.70;;;1.98;;
39448;SDS011;25151;45.566;9.382;2023-05-10T04:44:18;3.00;;;2.22;;
39448;SDS011;25151;45.566;9.382;2023-05-10T04:47:19;3.67;;;1.88;;
39448;SDS011;25151;45.566;9.382;2023-05-10T04:50:20;2.22;;;1.80;;
39448;SDS011;25151;45.566;9.382;2023-05-10T04:53:20;2.05;;;1.80;;
39448;SDS011;25151;45.566;9.382;2023-05-10T04:56:21;2.45;;;1.90;;
39448;SDS011;25151;45.566;9.382;2023-05-10T04:59:22;3.25;;;1.95;;
39448;SDS011;25151;45.566;9.382;2023-05-10T05:02:23;2.85;;;2.08;;
39448;SDS011;25151;45.566;9.382;2023-05-10T05:05:23;2.08;;;1.65;;
39448;SDS011;25151;45.566;9.382;2023-05-10T05:08:27;2.50;;;1.65;;
39448;SDS011;25151;45.566;9.382;2023-05-10T05:11:27;2.38;;;1.92;;
39448;SDS011;25151;45.566;9.382;2023-05-10T05:14:28;2.13;;;1.92;;
39448;SDS011;25151;45.566;9.382;2023-05-10T05:17:29;2.25;;;1.85;;
39448;SDS011;25151;45.566;9.382;2023-05-10T05:20:35;2.10;;;1.65;;
39448;SDS011;25151;45.566;9.382;2023-05-10T05:23:36;2.38;;;1.70;;
39448;SDS011;25151;45.566;9.382;2023-05-10T05:26:36;2.40;;;1.50;;
39448;SDS011;25151;45.566;9.382;2023-05-10T05:29:37;2.58;;;1.85;;
39448;SDS011;25151;45.566;9.382;2023-05-10T05:32:38;1.90;;;1.50;;
39448;SDS011;25151;45.566;9.382;2023-05-10T05:35:38;2.75;;;2.05;;
39448;SDS011;25151;45.566;9.382;2023-05-10T05:38:39;3.08;;;1.70;;
39448;SDS011;25151;45.566;9.382;2023-05-10T05:41:39;5.63;;;1.50;;
39448;SDS011;25151;45.566;9.382;2023-05-10T05:44:40;5.15;;;1.90;;
39448;SDS011;25151;45.566;9.382;2023-05-10T05:47:41;5.88;;;2.40;;
39448;SDS011;25151;45.566;9.382;2023-05-10T05:50:41;3.75;;;1.90;;
39448;SDS011;25151;45.566;9.382;2023-05-10T05:53:42;2.83;;;1.90;;
39448;SDS011;25151;45.566;9.382;2023-05-10T05:56:43;5.13;;;1.80;;
39448;SDS011;25151;45.566;9.382;2023-05-10T05:59:44;7.70;;;2.25;;
39448;SDS011;25151;45.566;9.382;2023-05-10T06:02:45;5.13;;;2.10;;
39448;SDS011;25151;45.566;9.382;2023-05-10T06:05:46;2.78;;;1.73;;
39448;SDS011;25151;45.566;9.382;2023-05-10T06:08:47;9.40;;;1.90;;
39448;SDS011;25151;45.566;9.382;2023-05-10T06:11:48;3.90;;;1.90;;
39448;SDS011;25151;45.566;9.382;2023-05-10T06:14:49;4.60;;;1.80;;
39448;SDS011;25151;45.566;9.382;2023-05-10T06:17:49;3.67;;;1.85;;
39448;SDS011;25151;45.566;9.382;2023-05-10T06:20:50;3.65;;;1.95;;
39448;SDS011;25151;45.566;9.382;2023-05-10T06:23:51;2.30;;;1.88;;
39448;SDS011;25151;45.566;9.382;2023-05-10T06:26:52;6.68;;;1.75;;
39448;SDS011;25151;45.566;9.382;2023-05-10T06:29:53;2.95;;;1.50;;
39448;SDS011;25151;45.566;9.382;2023-05-10T06:32:54;6.70;;;2.33;;
39448;SDS011;25151;45.566;9.382;2023-05-10T06:35:55;5.10;;;1.65;;
39448;SDS011;25151;45.566;9.382;2023-05-10T06:38:56;2.85;;;1.80;;
39448;SDS011;25151;45.566;9.382;2023-05-10T06:41:56;2.25;;;1.60;;
39448;SDS011;25151;45.566;9.382;2023-05-10T06:44:57;2.30;;;1.30;;
39448;SDS011;25151;45.566;9.382;2023-05-10T06:47:57;2.10;;;1.70;;
39448;SDS011;25151;45.566;9.382;2023-05-10T06:50:58;2.20;;;1.55;;
39448;SDS011;25151;45.566;9.382;2023-05-10T06:53:59;1.98;;;1.27;;
39448;SDS011;25151;45.566;9.382;2023-05-10T06:57:00;4.32;;;2.13;;
39448;SDS011;25151;45.566;9.382;2023-05-10T07:00:00;2.85;;;1.55;;
39448;SDS011;25151;45.566;9.382;2023-05-10T07:03:04;3.00;;;1.83;;
39448;SDS011;25151;45.566;9.382;2023-05-10T07:06:04;2.08;;;1.83;;
39448;SDS011;25151;45.566;9.382;2023-05-10T07:09:07;3.58;;;1.38;;
39448;SDS011;25151;45.566;9.382;2023-05-10T07:12:07;3.28;;;1.52;;
39448;SDS011;25151;45.566;9.382;2023-05-10T07:15:08;2.30;;;1.60;;
39448;SDS011;25151;45.566;9.382;2023-05-10T07:18:09;2.08;;;1.73;;
39448;SDS011;25151;45.566;9.382;2023-05-10T07:21:10;2.13;;;1.40;;
39448;SDS011;25151;45.566;9.382;2023-05-10T07:24:11;1.50;;;1.33;;
39448;SDS011;25151;45.566;9.382;2023-05-10T07:27:11;1.45;;;1.35;;
39448;SDS011;25151;45.566;9.382;2023-05-10T07:30:13;4.20;;;1.80;;
39448;SDS011;25151;45.566;9.382;2023-05-10T07:33:14;3.78;;;1.50;;
39448;SDS011;25151;45.566;9.382;2023-05-10T07:36:15;3.10;;;1.80;;
39448;SDS011;25151;45.566;9.382;2023-05-10T07:39:16;1.20;;;1.02;;
39448;SDS011;25151;45.566;9.382;2023-05-10T07:42:17;6.40;;;1.85;;
39448;SDS011;25151;45.566;9.382;2023-05-10T07:45:18;2.78;;;1.77;;
39448;SDS011;25151;45.566;9.382;2023-05-10T07:48:18;3.15;;;1.33;;
39448;SDS011;25151;45.566;9.382;2023-05-10T07:51:19;2.47;;;1.40;;
39448;SDS011;25151;45.566;9.382;2023-05-10T07:54:20;2.38;;;1.73;;
39448;SDS011;25151;45.566;9.382;2023-05-10T07:57:25;2.95;;;1.50;;
39448;SDS011;25151;45.566;9.382;2023-05-10T08:00:25;2.55;;;1.65;;
39448;SDS011;25151;45.566;9.382;2023-05-10T08:03:26;2.10;;;1.20;;
39448;SDS011;25151;45.566;9.382;2023-05-10T08:06:27;2.20;;;1.48;;
39448;SDS011;25151;45.566;9.382;2023-05-10T08:09:29;2.25;;;1.55;;
39448;SDS011;25151;45.566;9.382;2023-05-10T08:12:30;2.38;;;1.90;;
39448;SDS011;25151;45.566;9.382;2023-05-10T08:15:31;1.88;;;1.42;;
39448;SDS011;25151;45.566;9.382;2023-05-10T08:18:31;2.50;;;1.30;;
39448;SDS011;25151;45.566;9.382;2023-05-10T08:21:32;3.90;;;1.60;;
39448;SDS011;25151;45.566;9.382;2023-05-10T08:24:33;4.03;;;1.48;;
39448;SDS011;25151;45.566;9.382;2023-05-10T08:27:38;2.05;;;1.55;;
39448;SDS011;25151;45.566;9.382;2023-05-10T08:30:38;2.85;;;1.27;;
39448;SDS011;25151;45.566;9.382;2023-05-10T08:33:39;1.95;;;1.45;;
39448;SDS011;25151;45.566;9.382;2023-05-10T08:36:39;2.33;;;1.55;;
39448;SDS011;25151;45.566;9.382;2023-05-10T08:39:40;2.70;;;1.58;;
39448;SDS011;25151;45.566;9.382;2023-05-10T08:42:43;1.85;;;1.40;;
39448;SDS011;25151;45.566;9.382;2023-05-10T08:45:55;2.05;;;1.17;;
39448;SDS011;25151;45.566;9.382;2023-05-10T08:48:58;2.17;;;1.30;;
39448;SDS011;25151;45.566;9.382;2023-05-10T08:52:04;2.50;;;1.45;;
39448;SDS011;25151;45.566;9.382;2023-05-10T08:55:07;1.48;;;1.20;;
39448;SDS011;25151;45.566;9.382;2023-05-10T08:58:08;2.15;;;1.20;;
39448;SDS011;25151;45.566;9.382;2023-05-10T09:01:09;1.65;;;1.40;;
39448;SDS011;25151;45.566;9.382;2023-05-10T09:04:11;2.10;;;1.10;;
39448;SDS011;25151;45.566;9.382;2023-05-10T09:07:12;3.35;;;1.42;;
39448;SDS011;25151;45.566;9.382;2023-05-10T09:10:14;2.20;;;1.60;;
39448;SDS011;25151;45.566;9.382;2023-05-10T09:13:16;2.08;;;1.60;;
39448;SDS011;25151;45.566;9.382;2023-05-10T09:16:18;2.17;;;1.35;;
39448;SDS011;25151;45.566;9.382;2023-05-10T09:19:19;1.67;;;1.35;;
39448;SDS011;25151;45.566;9.382;2023-05-10T09:22:20;2.05;;;1.45;;
39448;SDS011;25151;45.566;9.382;2023-05-10T09:25:24;1.58;;;1.30;;
39448;SDS011;25151;45.566;9.382;2023-05-10T09:28:25;1.75;;;1.25;;
39448;SDS011;25151;45.566;9.382;2023-05-10T09:31:47;1.65;;;1.17;;
39448;SDS011;25151;45.566;9.382;2023-05-10T09:34:51;1.67;;;1.30;;
39448;SDS011;25151;45.566;9.382;2023-05-10T09:37:52;2.65;;;1.38;;
39448;SDS011;25151;45.566;9.382;2023-05-10T09:40:55;1.73;;;1.27;;
39448;SDS011;25151;45.566;9.382;2023-05-10T09:43:57;1.95;;;1.35;;
39448;SDS011;25151;45.566;9.382;2023-05-10T09:46:58;2.78;;;1.63;;
39448;SDS011;25151;45.566;9.382;2023-05-10T09:50:00;4.40;;;1.48;;
39448;SDS011;25151;45.566;9.382;2023-05-10T09:53:04;1.52;;;1.20;;
39448;SDS011;25151;45.566;9.382;2023-05-10T09:56:05;1.95;;;1.48;;
39448;SDS011;25151;45.566;9.382;2023-05-10T09:59:06;5.38;;;1.55;;
39448;SDS011;25151;45.566;9.382;2023-05-10T10:02:10;3.33;;;1.52;;
39448;SDS011;25151;45.566;9.382;2023-05-10T10:05:12;1.70;;;1.40;;
39448;SDS011;25151;45.566;9.382;2023-05-10T10:08:13;5.32;;;1.55;;
39448;SDS011;25151;45.566;9.382;2023-05-10T10:11:15;3.47;;;2.28;;
39448;SDS011;25151;45.566;9.382;2023-05-10T10:14:18;5.90;;;4.47;;
39448;SDS011;25151;45.566;9.382;2023-05-10T10:17:19;13.52;;;11.10;;
39448;SDS011;25151;45.566;9.382;2023-05-10T10:20:21;14.95;;;12.38;;
39448;SDS011;25151;45.566;9.382;2023-05-10T10:23:22;19.40;;;16.17;;
39448;SDS011;25151;45.566;9.382;2023-05-10T10:26:23;19.77;;;17.63;;
39448;SDS011;25151;45.566;9.382;2023-05-10T10:29:25;21.48;;;19.20;;
39448;SDS011;25151;45.566;9.382;2023-05-10T10:35:47;25.23;;;19.58;;
39448;SDS011;25151;45.566;9.382;2023-05-10T10:41:52;20.17;;;17.98;;
39448;SDS011;25151;45.566;9.382;2023-05-10T10:45:12;20.27;;;18.17;;
39448;SDS011;25151;45.566;9.382;2023-05-10T10:48:23;21.08;;;16.95;;
39448;SDS011;25151;45.566;9.382;2023-05-10T10:51:23;18.35;;;15.45;;
39448;SDS011;25151;45.566;9.382;2023-05-10T10:54:28;21.13;;;16.85;;
39448;SDS011;25151;45.566;9.382;2023-05-10T10:57:50;17.15;;;15.25;;
39448;SDS011;25151;45.566;9.382;2023-05-10T11:00:51;17.88;;;15.55;;
39448;SDS011;25151;45.566;9.382;2023-05-10T11:07:19;19.77;;;15.63;;
39448;SDS011;25151;45.566;9.382;2023-05-10T11:10:22;17.05;;;15.00;;
39448;SDS011;25151;45.566;9.382;2023-05-10T11:13:28;16.70;;;14.63;;
39448;SDS011;25151;45.566;9.382;2023-05-10T11:16:49;16.60;;;14.13;;
39448;SDS011;25151;45.566;9.382;2023-05-10T11:23:54;17.20;;;14.48;;
39448;SDS011;25151;45.566;9.382;2023-05-10T11:26:56;16.80;;;14.88;;
39448;SDS011;25151;45.566;9.382;2023-05-10T11:29:57;16.33;;;13.10;;
39448;SDS011;25151;45.566;9.382;2023-05-10T11:33:08;16.58;;;13.63;;
39448;SDS011;25151;45.566;9.382;2023-05-10T11:41:17;15.25;;;13.40;;
39448;SDS011;25151;45.566;9.382;2023-05-10T11:48:26;16.35;;;12.63;;
39448;SDS011;25151;45.566;9.382;2023-05-10T11:51:26;16.20;;;13.90;;
39448;SDS011;25151;45.566;9.382;2023-05-10T11:54:27;23.60;;;13.40;;
39448;SDS011;25151;45.566;9.382;2023-05-10T11:57:28;24.17;;;14.25;;
39448;SDS011;25151;45.566;9.382;2023-05-10T12:00:30;14.82;;;13.02;;
39448;SDS011;25151;45.566;9.382;2023-05-10T12:03:31;20.55;;;12.07;;
39448;SDS011;25151;45.566;9.382;2023-05-10T12:06:35;15.35;;;12.38;;
39448;SDS011;25151;45.566;9.382;2023-05-10T12:09:43;15.73;;;12.43;;
39448;SDS011;25151;45.566;9.382;2023-05-10T12:12:45;15.48;;;11.77;;
39448;SDS011;25151;45.566;9.382;2023-05-10T12:15:50;14.75;;;12.43;;
39448;SDS011;25151;45.566;9.382;2023-05-10T12:18:58;13.48;;;12.07;;
39448;SDS011;25151;45.566;9.382;2023-05-10T12:22:00;14.43;;;11.60;;
39448;SDS011;25151;45.566;9.382;2023-05-10T12:25:05;13.90;;;11.20;;
39448;SDS011;25151;45.566;9.382;2023-05-10T12:28:08;15.85;;;12.18;;
39448;SDS011;25151;45.566;9.382;2023-05-10T12:31:09;14.73;;;11.23;;
39448;SDS011;25151;45.566;9.382;2023-05-10T12:34:10;13.13;;;11.20;;
39448;SDS011;25151;45.566;9.382;2023-05-10T12:37:11;14.57;;;11.57;;
39448;SDS011;25151;45.566;9.382;2023-05-10T12:40:12;16.30;;;11.32;;
39448;SDS011;25151;45.566;9.382;2023-05-10T12:43:24;12.20;;;10.90;;
39448;SDS011;25151;45.566;9.382;2023-05-10T12:46:40;15.52;;;11.68;;
39448;SDS011;25151;45.566;9.382;2023-05-10T12:49:41;16.65;;;11.27;;
39448;SDS011;25151;45.566;9.382;2023-05-10T12:52:42;13.43;;;10.40;;
39448;SDS011;25151;45.566;9.382;2023-05-10T12:55:43;13.80;;;12.02;;
39448;SDS011;25151;45.566;9.382;2023-05-10T12:58:44;13.07;;;11.68;;
39448;SDS011;25151;45.566;9.382;2023-05-10T13:10:08;11.80;;;9.75;;
39448;SDS011;25151;45.566;9.382;2023-05-10T13:17:28;12.15;;;10.43;;
39448;SDS011;25151;45.566;9.382;2023-05-10T13:28:51;11.38;;;10.18;;
39448;SDS011;25151;45.566;9.382;2023-05-10T13:32:04;14.95;;;9.98;;
39448;SDS011;25151;45.566;9.382;2023-05-10T13:35:05;13.07;;;11.20;;
39448;SDS011;25151;45.566;9.382;2023-05-10T13:38:06;11.82;;;9.95;;
39448;SDS011;25151;45.566;9.382;2023-05-10T13:41:07;12.02;;;9.77;;
39448;SDS011;25151;45.566;9.382;2023-05-10T13:44:08;11.93;;;10.07;;
39448;SDS011;25151;45.566;9.382;2023-05-10T13:47:09;11.75;;;10.32;;
39448;SDS011;25151;45.566;9.382;2023-05-10T13:50:10;15.35;;;9.88;;
39448;SDS011;25151;45.566;9.382;2023-05-10T13:53:12;13.60;;;10.65;;
39448;SDS011;25151;45.566;9.382;2023-05-10T13:56:14;13.50;;;10.02;;
39448;SDS011;25151;45.566;9.382;2023-05-10T13:59:15;12.07;;;9.38;;
39448;SDS011;25151;45.566;9.382;2023-05-10T14:02:16;10.50;;;9.40;;
39448;SDS011;25151;45.566;9.382;2023-05-10T14:05:16;11.55;;;9.38;;
39448;SDS011;25151;45.566;9.382;2023-05-10T14:08:17;10.38;;;9.38;;
39448;SDS011;25151;45.566;9.382;2023-05-10T14:11:19;11.63;;;10.13;;
39448;SDS011;25151;45.566;9.382;2023-05-10T14:14:20;10.30;;;9.20;;
39448;SDS011;25151;45.566;9.382;2023-05-10T14:17:28;10.82;;;8.90;;
39448;SDS011;25151;45.566;9.382;2023-05-10T14:20:44;12.68;;;10.30;;
39448;SDS011;25151;45.566;9.382;2023-05-10T14:23:57;11.27;;;9.50;;
39448;SDS011;25151;45.566;9.382;2023-05-10T14:44:12;9.50;;;8.27;;
39448;SDS011;25151;45.566;9.382;2023-05-10T14:47:18;9.80;;;8.80;;
39448;SDS011;25151;45.566;9.382;2023-05-10T14:50:19;9.80;;;8.82;;
39448;SDS011;25151;45.566;9.382;2023-05-10T14:58:06;9.20;;;8.20;;
39448;SDS011;25151;45.566;9.382;2023-05-10T15:01:06;7.93;;;7.22;;
39448;SDS011;25151;45.566;9.382;2023-05-10T15:04:48;6.72;;;6.03;;
39448;SDS011;25151;45.566;9.382;2023-05-10T15:07:53;5.40;;;4.50;;
39448;SDS011;25151;45.566;9.382;2023-05-10T15:11:01;6.05;;;5.28;;
39448;SDS011;25151;45.566;9.382;2023-05-10T15:14:12;7.30;;;5.38;;
39448;SDS011;25151;45.566;9.382;2023-05-10T15:17:16;6.47;;;5.25;;
39448;SDS011;25151;45.566;9.382;2023-05-10T15:20:20;5.70;;;5.13;;
39448;SDS011;25151;45.566;9.382;2023-05-10T15:23:54;8.68;;;4.88;;
39448;SDS011;25151;45.566;9.382;2023-05-10T15:38:25;5.90;;;5.22;;
39448;SDS011;25151;45.566;9.382;2023-05-10T15:41:25;6.38;;;5.07;;
39448;SDS011;25151;45.566;9.382;2023-05-10T15:44:26;7.97;;;4.80;;
39448;SDS011;25151;45.566;9.382;2023-05-10T15:47:29;5.70;;;4.68;;
39448;SDS011;25151;45.566;9.382;2023-05-10T15:50:31;6.53;;;5.20;;
39448;SDS011;25151;45.566;9.382;2023-05-10T15:53:31;5.85;;;4.63;;
39448;SDS011;25151;45.566;9.382;2023-05-10T15:56:32;5.00;;;4.13;;
39448;SDS011;25151;45.566;9.382;2023-05-10T15:59:34;5.43;;;4.82;;
39448;SDS011;25151;45.566;9.382;2023-05-10T16:02:35;5.63;;;4.50;;
39448;SDS011;25151;45.566;9.382;2023-05-10T16:05:36;5.57;;;4.68;;
39448;SDS011;25151;45.566;9.382;2023-05-10T16:08:37;8.45;;;4.88;;
39448;SDS011;25151;45.566;9.382;2023-05-10T16:11:37;6.20;;;4.68;;
39448;SDS011;25151;45.566;9.382;2023-05-10T16:14:38;4.85;;;4.22;;
39448;SDS011;25151;45.566;9.382;2023-05-10T16:17:39;9.35;;;5.18;;
39448;SDS011;25151;45.566;9.382;2023-05-10T16:20:40;6.00;;;4.93;;
39448;SDS011;25151;45.566;9.382;2023-05-10T16:23:41;4.90;;;4.40;;
39448;SDS011;25151;45.566;9.382;2023-05-10T16:26:45;6.97;;;4.75;;
39448;SDS011;25151;45.566;9.382;2023-05-10T16:29:46;6.38;;;4.85;;
39448;SDS011;25151;45.566;9.382;2023-05-10T16:32:47;6.30;;;5.05;;
39448;SDS011;25151;45.566;9.382;2023-05-10T16:35:48;7.50;;;4.57;;
39448;SDS011;25151;45.566;9.382;2023-05-10T16:38:49;6.63;;;5.03;;
39448;SDS011;25151;45.566;9.382;2023-05-10T16:41:51;6.82;;;4.85;;
39448;SDS011;25151;45.566;9.382;2023-05-10T16:44:52;6.32;;;4.97;;
39448;SDS011;25151;45.566;9.382;2023-05-10T16:47:53;7.45;;;5.55;;
39448;SDS011;25151;45.566;9.382;2023-05-10T16:50:54;4.97;;;4.47;;
39448;SDS011;25151;45.566;9.382;2023-05-10T16:53:55;6.45;;;4.93;;
39448;SDS011;25151;45.566;9.382;2023-05-10T16:56:55;5.20;;;4.30;;
39448;SDS011;25151;45.566;9.382;2023-05-10T16:59:56;5.20;;;4.30;;
39448;SDS011;25151;45.566;9.382;2023-05-10T17:02:57;8.10;;;4.28;;
39448;SDS011;25151;45.566;9.382;2023-05-10T17:05:58;6.18;;;4.40;;
39448;SDS011;25151;45.566;9.382;2023-05-10T17:08:58;5.63;;;4.43;;
39448;SDS011;25151;45.566;9.382;2023-05-10T17:12:00;6.03;;;4.35;;
39448;SDS011;25151;45.566;9.382;2023-05-10T17:15:07;7.53;;;5.15;;
39448;SDS011;25151;45.566;9.382;2023-05-10T17:18:13;7.05;;;4.95;;
39448;SDS011;25151;45.566;9.382;2023-05-10T17:21:13;8.82;;;4.80;;
39448;SDS011;25151;45.566;9.382;2023-05-10T17:24:36;6.85;;;4.70;;
39448;SDS011;25151;45.566;9.382;2023-05-10T17:27:39;8.52;;;4.85;;
39448;SDS011;25151;45.566;9.382;2023-05-10T17:30:53;9.27;;;4.93;;
39448;SDS011;25151;45.566;9.382;2023-05-10T17:35:04;6.90;;;4.97;;
39448;SDS011;25151;45.566;9.382;2023-05-10T17:41:21;8.10;;;4.65;;
39448;SDS011;25151;45.566;9.382;2023-05-10T17:44:41;8.07;;;4.80;;
39448;SDS011;25151;45.566;9.382;2023-05-10T17:47:48;9.48;;;4.72;;
39448;SDS011;25151;45.566;9.382;2023-05-10T17:51:18;10.63;;;5.18;;
39448;SDS011;25151;45.566;9.382;2023-05-10T17:54:21;9.95;;;4.30;;
39448;SDS011;25151;45.566;9.382;2023-05-10T17:57:22;12.27;;;5.32;;
39448;SDS011;25151;45.566;9.382;2023-05-10T18:00:24;9.88;;;5.05;;
39448;SDS011;25151;45.566;9.382;2023-05-10T18:03:24;8.50;;;5.10;;
39448;SDS011;25151;45.566;9.382;2023-05-10T18:06:25;8.95;;;4.65;;
39448;SDS011;25151;45.566;9.382;2023-05-10T18:09:27;8.90;;;5.15;;
39448;SDS011;25151;45.566;9.382;2023-05-10T18:12:29;6.55;;;4.53;;
39448;SDS011;25151;45.566;9.382;2023-05-10T18:15:47;10.73;;;4.82;;
39448;SDS011;25151;45.566;9.382;2023-05-10T18:19:05;6.82;;;4.25;;
39448;SDS011;25151;45.566;9.382;2023-05-10T18:22:06;8.15;;;4.88;;
39448;SDS011;25151;45.566;9.382;2023-05-10T18:25:06;6.30;;;4.15;;
39448;SDS011;25151;45.566;9.382;2023-05-10T18:28:12;8.70;;;4.40;;
39448;SDS011;25151;45.566;9.382;2023-05-10T18:31:22;7.35;;;4.53;;
39448;SDS011;25151;45.566;9.382;2023-05-10T18:34:39;7.25;;;4.60;;
39448;SDS011;25151;45.566;9.382;2023-05-10T18:37:55;9.85;;;4.35;;
39448;SDS011;25151;45.566;9.382;2023-05-10T18:41:02;5.10;;;4.10;;
39448;SDS011;25151;45.566;9.382;2023-05-10T18:44:13;7.55;;;4.38;;
39448;SDS011;25151;45.566;9.382;2023-05-10T18:47:14;7.60;;;4.38;;
39448;SDS011;25151;45.566;9.382;2023-05-10T18:50:14;9.38;;;4.70;;
39448;SDS011;25151;45.566;9.382;2023-05-10T18:53:17;7.05;;;4.13;;
39448;SDS011;25151;45.566;9.382;2023-05-10T19:00:03;6.22;;;4.18;;
39448;SDS011;25151;45.566;9.382;2023-05-10T19:03:11;6.78;;;4.68;;
39448;SDS011;25151;45.566;9.382;2023-05-10T19:06:34;9.75;;;4.88;;
39448;SDS011;25151;45.566;9.382;2023-05-10T19:09:41;6.00;;;4.00;;
39448;SDS011;25151;45.566;9.382;2023-05-10T19:12:50;6.13;;;4.40;;
39448;SDS011;25151;45.566;9.382;2023-05-10T19:16:15;5.63;;;4.18;;
39448;SDS011;25151;45.566;9.382;2023-05-10T19:19:18;6.35;;;3.90;;
39448;SDS011;25151;45.566;9.382;2023-05-10T19:22:26;6.28;;;4.03;;
39448;SDS011;25151;45.566;9.382;2023-05-10T19:25:27;6.05;;;4.18;;
39448;SDS011;25151;45.566;9.382;2023-05-10T19:28:32;7.35;;;4.05;;
39448;SDS011;25151;45.566;9.382;2023-05-10T19:31:33;7.07;;;4.38;;
39448;SDS011;25151;45.566;9.382;2023-05-10T19:34:41;5.80;;;4.32;;
39448;SDS011;25151;45.566;9.382;2023-05-10T19:37:42;6.45;;;3.92;;
39448;SDS011;25151;45.566;9.382;2023-05-10T19:40:49;7.90;;;4.82;;
39448;SDS011;25151;45.566;9.382;2023-05-10T19:44:16;6.13;;;3.75;;
39448;SDS011;25151;45.566;9.382;2023-05-10T19:47:26;4.53;;;3.60;;
39448;SDS011;25151;45.566;9.382;2023-05-10T19:50:27;5.43;;;3.92;;
39448;SDS011;25151;45.566;9.382;2023-05-10T19:53:37;5.55;;;4.10;;
39448;SDS011;25151;45.566;9.382;2023-05-10T19:56:40;7.05;;;3.60;;
39448;SDS011;25151;45.566;9.382;2023-05-10T19:59:42;7.45;;;4.00;;